Hagerstown, MD (21740)

1:46 PM EDT on July 28, 2016 (GMT -0400)
Hagerstown 1E - Pangborn Blvd. | | Change Station

Elev 537 ft 39.64 °N, 77.70 °W | Updated 19 seconds ago

Clear
Clear
83.4 °F
Feels Like 91 °F
N
1.0
Wind Variable Wind from WSW
Gusts 3.0 mph

Today
High -- | Low -- °F
--% Chance of Precip.
Yesterday
High -- | Low -- °F
Precip. -- in
Pressure 29.91 in
Visibility 10.0 miles
Clouds Clear
Heat Index 91 °F
Dew Point 75 °F
Humidity 76%
Rainfall 0.00 in
Snow Depth Not available.
6:06 AM 8:27 PM
Waning Crescent, 30% visible
METAR KHGR 281653Z 04006KT 10SM CLR 32/18 A2990 RMK AO2 LTG DSNT SW AND W SLP126 T03170183
Pressure 29.91 in
Visibility 10.0 miles
Clouds Clear
Heat Index 91 °F
Dew Point 75 °F
Humidity 76%
Rainfall 0.00 in
Snow Depth Not available.
6:06 AM 8:27 PM
Waning Crescent, 30% visible
METAR KHGR 281653Z 04006KT 10SM CLR 32/18 A2990 RMK AO2 LTG DSNT SW AND W SLP126 T03170183

10-Day Weather Forecast

Almanac

Astronomy

Jul. 28, 2016 Rise Set
Actual Time
Civil Twilight
Nautical Twilight
Astronomical Twilight
Moon
Length of Visible Light
Length of Day
Tomorrow will be .
, % of the Moon is Illuminated

Today's Extremes

State Highs State Lows

Community

WunderPhotos

Upload Photos

1,928,163 photos uploaded!

WunderBlog® & News

Nearby

Air Quality

  Air Quality AQ Index Pollutant
Not available.

Snow Depth

Station Depth Elevation

Earthquake Activity

City Distance Mag. Time & Date
Minimum magnitude displayed is 2.5.

Coastal Water Temperatures

Place Temperature

Stations

Nearby Weather Stations

Station Location Temp. Windchill Dew Point Humidity Wind Precip. Elev Updated Type
                   

Watches & Warnings

Severe Thunderstorm Watch
Issued: 1:43 PM EDT Jul. 28, 2016 – National Weather Service

Severe Thunderstorm Watch 418 remains in effect until 1200 am EDT

MD
. Maryland counties included are

Anne Arundel Baltimore Calvert
Caroline Carroll Cecil
Charles Frederick Harford
Howard Kent Montgomery
Prince Georges Queen Anne's St. Marys
Talbot Washington


Maryland independent cities included are

Baltimore City